createdAt,value
2022-11-13T00:01:09.225Z,4.33
2022-11-13T00:03:56.178Z,4.37
2022-11-13T00:06:43.177Z,4.30
2022-11-13T00:09:30.119Z,4.27
2022-11-13T00:12:17.165Z,3.83
2022-11-13T00:15:04.486Z,3.77
2022-11-13T00:17:52.565Z,3.57
2022-11-13T00:20:39.263Z,3.83
2022-11-13T00:23:26.236Z,3.43
2022-11-13T00:26:16.151Z,3.50
2022-11-13T00:29:04.496Z,3.37
2022-11-13T00:31:51.301Z,3.57
2022-11-13T00:34:48.402Z,3.87
2022-11-13T00:37:35.565Z,3.07
2022-11-13T00:40:22.262Z,3.67
2022-11-13T00:43:09.279Z,4.13
2022-11-13T00:45:56.487Z,4.17
2022-11-13T00:48:43.159Z,4.20
2022-11-13T00:51:31.466Z,3.63
2022-11-13T00:54:18.224Z,4.53
2022-11-13T00:57:05.507Z,4.00
2022-11-13T00:59:52.441Z,3.80
2022-11-13T01:02:39.675Z,3.60
2022-11-13T01:05:27.484Z,3.87
2022-11-13T01:08:17.486Z,3.90
2022-11-13T01:11:11.283Z,3.70
2022-11-13T01:13:58.542Z,3.93
2022-11-13T01:16:45.559Z,3.50
2022-11-13T01:19:32.494Z,3.30
2022-11-13T01:22:22.208Z,3.17
2022-11-13T01:25:11.039Z,2.43
2022-11-13T01:27:58.231Z,3.10
2022-11-13T01:30:45.276Z,3.03
2022-11-13T01:33:32.314Z,2.93
2022-11-13T01:36:22.401Z,3.10
2022-11-13T01:39:10.744Z,3.03
2022-11-13T01:41:59.342Z,2.90
2022-11-13T01:44:52.099Z,3.47
2022-11-13T01:47:38.811Z,3.63
2022-11-13T01:50:25.872Z,3.67
2022-11-13T01:53:13.478Z,4.23
2022-11-13T01:56:00.577Z,4.03
2022-11-13T01:58:56.688Z,3.87
2022-11-13T02:01:43.680Z,4.07
2022-11-13T02:04:31.503Z,4.10
2022-11-13T02:07:21.943Z,4.67
2022-11-13T02:10:10.434Z,3.73
2022-11-13T02:12:57.691Z,4.87
2022-11-13T02:15:46.974Z,4.07
2022-11-13T02:18:35.412Z,3.97
2022-11-13T02:21:33.976Z,3.93
2022-11-13T02:24:28.559Z,3.77
2022-11-13T02:27:22.713Z,4.30
2022-11-13T02:30:19.741Z,4.23
2022-11-13T02:33:24.814Z,4.43
2022-11-13T02:36:14.041Z,4.37
2022-11-13T02:39:05.528Z,4.60
2022-11-13T02:41:54.092Z,4.40
2022-11-13T02:44:41.021Z,4.47
2022-11-13T02:47:28.475Z,4.77
2022-11-13T02:50:16.227Z,3.97
2022-11-13T02:53:03.104Z,4.40
2022-11-13T02:55:50.179Z,4.13
2022-11-13T02:58:38.527Z,3.87
2022-11-13T03:01:25.328Z,3.93
2022-11-13T03:04:12.220Z,3.67
2022-11-13T03:06:59.474Z,4.17
2022-11-13T03:09:46.752Z,4.20
2022-11-13T03:12:34.639Z,3.47
2022-11-13T03:15:23.013Z,4.03
2022-11-13T03:18:11.975Z,3.90
2022-11-13T03:20:58.642Z,3.70
2022-11-13T03:23:46.420Z,3.83
2022-11-13T03:26:33.478Z,3.60
2022-11-13T03:29:20.527Z,3.50
2022-11-13T03:32:09.024Z,3.40
2022-11-13T03:34:56.053Z,3.13
2022-11-13T03:37:43.094Z,3.90
2022-11-13T03:40:29.911Z,3.93
2022-11-13T03:43:17.080Z,3.27
2022-11-13T03:46:04.125Z,3.17
2022-11-13T03:48:52.303Z,3.20
2022-11-13T03:51:39.128Z,2.73
2022-11-13T03:54:26.082Z,2.87
2022-11-13T03:57:13.075Z,2.77
2022-11-13T04:00:00.001Z,3.20
2022-11-13T04:02:46.940Z,2.90
2022-11-13T04:05:35.550Z,2.90
2022-11-13T04:08:22.473Z,2.53
2022-11-13T04:11:10.500Z,2.70
2022-11-13T04:13:57.625Z,2.40
2022-11-13T04:16:44.735Z,3.03
2022-11-13T04:19:31.910Z,2.50
2022-11-13T04:22:20.231Z,3.07
2022-11-13T04:25:08.291Z,2.63
2022-11-13T04:27:55.483Z,3.17
2022-11-13T04:30:42.507Z,2.37
2022-11-13T04:33:29.392Z,2.60
2022-11-13T04:36:16.468Z,2.47
2022-11-13T04:39:05.301Z,2.53
2022-11-13T04:42:09.447Z,2.67
2022-11-13T04:44:56.460Z,2.20
2022-11-13T04:47:43.459Z,2.40
2022-11-13T04:50:31.317Z,2.50
2022-11-13T04:53:17.854Z,2.40
2022-11-13T04:56:06.752Z,2.77
2022-11-13T04:58:54.030Z,2.97
2022-11-13T05:01:41.127Z,2.63
2022-11-13T05:04:27.993Z,3.17
2022-11-13T05:07:15.201Z,3.07
2022-11-13T05:10:02.316Z,2.53
2022-11-13T05:12:50.618Z,2.33
2022-11-13T05:15:37.399Z,2.13
2022-11-13T05:18:27.341Z,2.70
2022-11-13T05:21:15.009Z,2.47
2022-11-13T05:24:02.058Z,2.43
2022-11-13T05:26:49.045Z,2.50
2022-11-13T05:29:37.463Z,2.73
2022-11-13T05:32:24.111Z,2.90
2022-11-13T05:35:11.371Z,3.20
2022-11-13T05:38:02.480Z,2.30
2022-11-13T05:40:49.372Z,2.57
2022-11-13T05:43:37.525Z,2.70
2022-11-13T05:46:28.743Z,2.27
2022-11-13T05:49:15.616Z,2.60
2022-11-13T05:52:02.296Z,3.10
2022-11-13T05:54:49.296Z,3.37
2022-11-13T05:57:36.229Z,2.83
2022-11-13T06:00:23.283Z,2.50
2022-11-13T06:03:11.388Z,2.23
2022-11-13T06:05:59.294Z,2.20
2022-11-13T06:08:46.884Z,2.60
2022-11-13T06:11:33.887Z,2.17
2022-11-13T06:14:20.742Z,2.43
2022-11-13T06:17:07.599Z,2.70
2022-11-13T06:19:55.716Z,3.40
2022-11-13T06:22:42.463Z,2.53
2022-11-13T06:25:29.838Z,2.50
2022-11-13T06:28:16.903Z,2.73
2022-11-13T06:31:05.354Z,3.13
2022-11-13T06:33:52.585Z,2.53
2022-11-13T06:36:40.672Z,3.03
2022-11-13T06:39:27.416Z,2.90
2022-11-13T06:42:14.789Z,2.80
2022-11-13T06:45:01.791Z,2.70
2022-11-13T06:47:48.632Z,2.70
2022-11-13T06:50:35.819Z,2.70
2022-11-13T06:53:24.091Z,2.20
2022-11-13T06:56:11.119Z,2.80
2022-11-13T06:58:58.287Z,2.67
2022-11-13T07:01:45.060Z,3.03
2022-11-13T07:04:32.038Z,3.07
2022-11-13T07:07:19.146Z,2.53
2022-11-13T07:10:08.923Z,2.60
2022-11-13T07:12:55.871Z,2.37
2022-11-13T07:15:42.895Z,2.43
2022-11-13T07:18:30.453Z,2.90
2022-11-13T07:21:17.513Z,2.73
2022-11-13T07:24:04.723Z,3.50
2022-11-13T07:26:52.763Z,3.93
2022-11-13T07:29:40.030Z,3.57
2022-11-13T07:32:26.752Z,3.53
2022-11-13T07:35:16.787Z,4.17
2022-11-13T07:38:03.695Z,5.13
2022-11-13T07:40:51.174Z,5.17
2022-11-13T07:43:39.317Z,4.50
2022-11-13T07:46:26.148Z,4.90
2022-11-13T07:49:13.192Z,4.93
2022-11-13T07:52:00.119Z,4.87
2022-11-13T07:54:47.284Z,4.53
2022-11-13T07:57:34.493Z,4.77
2022-11-13T08:00:22.866Z,3.70
2022-11-13T08:03:12.373Z,4.17
2022-11-13T08:06:03.101Z,3.53
2022-11-13T08:08:50.378Z,3.50
2022-11-13T08:11:37.862Z,3.70
2022-11-13T08:14:25.209Z,3.57
2022-11-13T08:17:13.546Z,4.43
2022-11-13T08:20:00.257Z,4.00
2022-11-13T08:22:47.222Z,5.50
2022-11-13T08:25:36.993Z,4.83
2022-11-13T08:28:23.811Z,4.97
2022-11-13T08:31:13.756Z,5.13
2022-11-13T08:34:02.537Z,4.70
2022-11-13T08:36:52.615Z,5.37
2022-11-13T08:39:39.440Z,5.70
2022-11-13T08:42:26.429Z,5.87
2022-11-13T08:45:13.778Z,6.60
2022-11-13T08:48:02.339Z,5.93
2022-11-13T08:50:54.859Z,5.13
2022-11-13T08:53:41.877Z,5.30
2022-11-13T08:56:28.856Z,5.47
2022-11-13T08:59:15.890Z,5.93
2022-11-13T09:02:02.864Z,6.13
2022-11-13T09:04:49.712Z,6.73
2022-11-13T09:07:38.275Z,7.20
2022-11-13T09:10:25.465Z,9.37
2022-11-13T09:13:12.537Z,11.33
2022-11-13T09:16:00.328Z,9.43
2022-11-13T09:18:50.139Z,11.03
2022-11-13T09:21:37.113Z,8.93
2022-11-13T09:24:25.703Z,8.27
2022-11-13T09:27:12.697Z,6.97
2022-11-13T09:29:59.699Z,7.63
2022-11-13T09:32:46.624Z,7.83
2022-11-13T09:35:37.619Z,7.40
2022-11-13T09:38:24.615Z,6.97
2022-11-13T09:41:17.408Z,6.43
2022-11-13T09:44:07.978Z,6.43
2022-11-13T09:46:58.834Z,5.17
2022-11-13T09:49:49.348Z,4.93
2022-11-13T09:52:39.436Z,5.17
2022-11-13T09:55:36.152Z,5.67
2022-11-13T09:58:32.924Z,5.87
2022-11-13T10:01:28.949Z,6.17
2022-11-13T10:04:20.866Z,5.77
2022-11-13T10:07:25.345Z,5.57
2022-11-13T10:10:33.246Z,6.17
2022-11-13T10:13:27.024Z,6.70
2022-11-13T10:16:31.104Z,6.07
2022-11-13T10:19:35.900Z,7.90
2022-11-13T10:22:33.346Z,7.13
2022-11-13T10:25:24.569Z,6.77
2022-11-13T10:28:48.205Z,6.37
2022-11-13T10:31:24.129Z,5.97
2022-11-13T10:34:11.516Z,5.93
2022-11-13T10:37:23.379Z,6.37
2022-11-13T10:40:10.658Z,6.23
2022-11-13T10:43:07.994Z,7.03
2022-11-13T10:46:00.670Z,8.43
2022-11-13T10:48:49.227Z,7.90
2022-11-13T10:51:36.625Z,8.33
2022-11-13T10:54:27.599Z,8.00
2022-11-13T10:57:30.441Z,7.87
2022-11-13T11:00:31.670Z,6.90
2022-11-13T11:03:21.355Z,6.77
2022-11-13T11:06:09.808Z,7.67
2022-11-13T11:09:08.499Z,7.70
2022-11-13T11:12:22.052Z,6.50
2022-11-13T11:15:23.756Z,7.07
2022-11-13T11:18:23.900Z,6.90
2022-11-13T11:21:16.909Z,6.90
2022-11-13T11:24:13.184Z,7.43
2022-11-13T11:27:07.128Z,7.10
2022-11-13T11:30:04.945Z,7.53
2022-11-13T11:33:01.945Z,8.40
2022-11-13T11:35:55.440Z,9.50
2022-11-13T11:38:53.892Z,10.30
2022-11-13T11:41:49.965Z,10.83
2022-11-13T11:44:47.743Z,9.47
2022-11-13T11:47:35.109Z,9.80
2022-11-13T11:50:34.722Z,9.67
2022-11-13T11:53:38.733Z,9.30
2022-11-13T11:56:33.856Z,10.50
2022-11-13T11:59:36.167Z,9.87
2022-11-13T12:03:12.058Z,10.83
2022-11-13T12:06:10.098Z,10.80
2022-11-13T12:09:04.956Z,10.03
2022-11-13T12:12:03.748Z,13.43
2022-11-13T12:15:04.905Z,12.93
2022-11-13T12:18:07.270Z,11.70
2022-11-13T12:21:06.697Z,12.03
2022-11-13T12:24:20.487Z,11.30
2022-11-13T12:27:23.532Z,11.13
2022-11-13T12:30:16.954Z,10.63
2022-11-13T12:33:20.717Z,9.87
2022-11-13T12:36:12.279Z,10.50
2022-11-13T12:39:08.238Z,10.17
2022-11-13T12:42:01.170Z,10.37
2022-11-13T12:45:00.632Z,8.97
2022-11-13T12:47:49.748Z,8.83
2022-11-13T12:50:37.021Z,9.87
2022-11-13T12:53:28.353Z,9.47
2022-11-13T12:56:33.652Z,8.83
2022-11-13T12:59:34.644Z,9.37
2022-11-13T13:02:57.951Z,8.90
2022-11-13T13:06:06.195Z,10.57
2022-11-13T13:09:06.894Z,13.97
2022-11-13T13:12:04.301Z,14.83
2022-11-13T13:15:12.620Z,13.30
2022-11-13T13:18:13.063Z,13.77
2022-11-13T13:21:07.473Z,18.70
2022-11-13T13:23:54.353Z,15.27
2022-11-13T13:26:48.102Z,13.90
2022-11-13T13:29:35.451Z,14.00
2022-11-13T13:32:29.364Z,13.40
2022-11-13T13:35:23.582Z,12.43
2022-11-13T13:38:21.659Z,14.83
2022-11-13T13:41:20.307Z,15.50
2022-11-13T13:44:39.080Z,17.67
2022-11-13T13:47:30.192Z,15.57
2022-11-13T13:50:22.460Z,12.80
2022-11-13T13:53:14.450Z,12.93
2022-11-13T13:56:04.094Z,11.93
2022-11-13T13:58:51.697Z,12.77
2022-11-13T14:01:38.407Z,12.23
2022-11-13T14:04:27.632Z,11.30
2022-11-13T14:07:26.502Z,11.70
2022-11-13T14:10:20.420Z,12.30
2022-11-13T14:13:07.341Z,13.67
2022-11-13T14:16:06.092Z,11.97
2022-11-13T14:18:52.918Z,9.97
2022-11-13T14:21:40.172Z,9.83
2022-11-13T14:24:33.851Z,9.73
2022-11-13T14:27:24.828Z,11.60
2022-11-13T14:30:26.357Z,12.80
2022-11-13T14:33:18.863Z,12.93
2022-11-13T14:36:07.198Z,12.23
2022-11-13T14:38:54.176Z,11.93
2022-11-13T14:41:51.343Z,10.40
2022-11-13T14:44:38.427Z,8.53
2022-11-13T14:47:28.590Z,9.43
2022-11-13T14:50:24.621Z,10.80
2022-11-13T14:53:12.689Z,11.50
2022-11-13T14:56:02.637Z,7.47
2022-11-13T14:58:51.017Z,6.93
2022-11-13T15:01:37.894Z,7.30
2022-11-13T15:04:24.786Z,6.30
2022-11-13T15:07:29.696Z,5.83
2022-11-13T15:10:19.992Z,5.53
2022-11-13T15:13:13.339Z,8.53
2022-11-13T15:16:01.607Z,10.10
2022-11-13T15:18:52.845Z,10.67
2022-11-13T15:21:39.781Z,8.57
2022-11-13T15:24:27.916Z,7.47
2022-11-13T15:27:17.160Z,8.57
2022-11-13T15:30:03.957Z,7.20
2022-11-13T15:32:54.133Z,6.07
2022-11-13T15:35:42.753Z,5.67
2022-11-13T15:38:29.538Z,5.27
2022-11-13T15:41:20.868Z,5.13
2022-11-13T15:44:14.207Z,5.00
2022-11-13T15:47:00.986Z,5.17
2022-11-13T15:50:09.791Z,5.67
2022-11-13T15:53:00.967Z,7.57
2022-11-13T15:55:51.265Z,6.70
2022-11-13T15:58:38.432Z,8.80
2022-11-13T16:01:25.903Z,8.40
2022-11-13T16:04:14.966Z,8.03
2022-11-13T16:07:03.367Z,8.10
2022-11-13T16:09:50.347Z,7.93
2022-11-13T16:12:37.850Z,7.40
2022-11-13T16:15:25.039Z,9.50
2022-11-13T16:18:21.498Z,9.87
2022-11-13T16:21:11.418Z,11.10
2022-11-13T16:24:01.528Z,10.17
2022-11-13T16:26:52.933Z,11.97
2022-11-13T16:29:39.812Z,12.40
2022-11-13T16:32:27.150Z,14.23
2022-11-13T16:35:15.808Z,17.33
2022-11-13T16:38:03.551Z,15.93
2022-11-13T16:40:51.595Z,17.63
2022-11-13T16:43:38.596Z,15.27
2022-11-13T16:46:30.875Z,17.17
2022-11-13T16:49:20.329Z,18.40
2022-11-13T16:52:07.479Z,17.00
2022-11-13T16:54:54.626Z,16.03
2022-11-13T16:57:43.230Z,15.87
2022-11-13T17:00:30.829Z,16.10
2022-11-13T17:03:18.032Z,15.60
2022-11-13T17:06:05.288Z,14.23
2022-11-13T17:08:52.754Z,12.60
2022-11-13T17:11:39.750Z,12.80
2022-11-13T17:14:28.165Z,11.70
2022-11-13T17:17:15.647Z,12.13
2022-11-13T17:20:03.017Z,12.60
2022-11-13T17:22:50.103Z,11.20
2022-11-13T17:25:37.172Z,11.70
2022-11-13T17:28:24.242Z,11.90
2022-11-13T17:31:13.625Z,10.37
2022-11-13T17:34:00.466Z,9.17
2022-11-13T17:36:47.515Z,10.40
2022-11-13T17:39:34.584Z,10.53
2022-11-13T17:42:21.688Z,10.37
2022-11-13T17:45:11.069Z,10.23
2022-11-13T17:48:00.025Z,8.33
2022-11-13T17:50:57.131Z,8.30
2022-11-13T17:53:44.370Z,8.80
2022-11-13T17:56:31.348Z,9.60
2022-11-13T17:59:18.441Z,10.50
2022-11-13T18:02:05.534Z,11.70
2022-11-13T18:04:56.312Z,11.40
2022-11-13T18:07:43.131Z,13.63
2022-11-13T18:10:31.735Z,17.47
2022-11-13T18:13:18.731Z,19.30
2022-11-13T18:16:07.865Z,22.27
2022-11-13T18:18:56.590Z,30.57
2022-11-13T18:21:44.696Z,29.67
2022-11-13T18:24:31.697Z,23.53
2022-11-13T18:27:18.696Z,20.00
2022-11-13T18:30:07.080Z,21.93
2022-11-13T18:32:54.145Z,25.03
2022-11-13T18:35:41.174Z,24.33
2022-11-13T18:38:29.749Z,24.23
2022-11-13T18:41:19.634Z,21.13
2022-11-13T18:44:06.727Z,25.37
2022-11-13T18:46:53.783Z,26.50
2022-11-13T18:49:40.638Z,27.20
2022-11-13T18:52:27.839Z,26.97
2022-11-13T18:55:16.499Z,26.07
2022-11-13T18:58:03.462Z,21.20
2022-11-13T19:00:50.431Z,21.90
2022-11-13T19:03:37.635Z,18.57
2022-11-13T19:06:25.624Z,19.40
2022-11-13T19:09:15.006Z,18.20
2022-11-13T19:12:03.406Z,17.33
2022-11-13T19:14:50.338Z,18.37
2022-11-13T19:17:37.771Z,22.20
2022-11-13T19:20:24.510Z,23.73
2022-11-13T19:23:11.568Z,21.37
2022-11-13T19:25:58.589Z,20.07
2022-11-13T19:28:50.292Z,18.93
2022-11-13T19:31:37.439Z,16.73
2022-11-13T19:34:24.287Z,17.93
2022-11-13T19:37:14.938Z,17.07
2022-11-13T19:40:05.363Z,19.77
2022-11-13T19:42:52.757Z,18.33
2022-11-13T19:45:40.850Z,18.10
2022-11-13T19:48:27.531Z,19.20
2022-11-13T19:51:18.065Z,18.53
2022-11-13T19:54:04.903Z,18.47
2022-11-13T19:56:51.736Z,18.17
2022-11-13T19:59:39.527Z,17.57
2022-11-13T20:02:28.005Z,17.50
2022-11-13T20:05:15.109Z,17.20
2022-11-13T20:08:01.845Z,16.73
2022-11-13T20:10:48.906Z,17.53
2022-11-13T20:13:36.703Z,18.40
2022-11-13T20:16:23.585Z,17.37
2022-11-13T20:19:11.990Z,18.07
2022-11-13T20:21:59.922Z,19.00
2022-11-13T20:24:47.008Z,17.93
2022-11-13T20:27:37.241Z,17.00
2022-11-13T20:30:24.358Z,16.50
2022-11-13T20:33:11.357Z,15.77
2022-11-13T20:35:59.932Z,17.27
2022-11-13T20:38:51.645Z,16.20
2022-11-13T20:41:38.646Z,15.33
2022-11-13T20:44:25.724Z,16.03
2022-11-13T20:47:12.800Z,15.03
2022-11-13T20:49:59.659Z,14.67
2022-11-13T20:52:48.028Z,14.43
2022-11-13T20:55:34.770Z,14.90
2022-11-13T20:58:21.672Z,14.33
2022-11-13T21:01:11.112Z,14.50
2022-11-13T21:03:59.585Z,14.70
2022-11-13T21:06:47.245Z,14.20
2022-11-13T21:09:35.348Z,14.37
2022-11-13T21:12:22.089Z,15.00
2022-11-13T21:15:10.143Z,16.83
2022-11-13T21:17:57.055Z,22.43
2022-11-13T21:20:44.475Z,19.87
2022-11-13T21:23:31.610Z,19.07
2022-11-13T21:26:20.483Z,18.47
2022-11-13T21:29:07.522Z,17.07
2022-11-13T21:31:54.452Z,16.53
2022-11-13T21:34:41.521Z,17.33
2022-11-13T21:37:28.221Z,19.20
2022-11-13T21:40:15.594Z,17.43
2022-11-13T21:43:04.140Z,17.80
2022-11-13T21:45:50.870Z,17.87
2022-11-13T21:48:38.072Z,18.80
2022-11-13T21:51:25.575Z,17.63
2022-11-13T21:54:12.663Z,18.83
2022-11-13T21:56:59.604Z,18.57
2022-11-13T21:59:48.012Z,17.97
2022-11-13T22:02:34.805Z,17.43
2022-11-13T22:05:21.735Z,18.17
2022-11-13T22:08:08.663Z,17.47
2022-11-13T22:10:55.995Z,17.37
2022-11-13T22:13:43.615Z,17.57
2022-11-13T22:16:36.789Z,17.03
2022-11-13T22:19:27.679Z,16.00
2022-11-13T22:22:15.382Z,14.83
2022-11-13T22:25:02.200Z,14.43
2022-11-13T22:27:49.020Z,14.57
2022-11-13T22:30:36.072Z,14.23
2022-11-13T22:33:27.760Z,14.07
2022-11-13T22:36:17.468Z,14.63
2022-11-13T22:39:06.047Z,14.67
2022-11-13T22:41:53.056Z,13.63
2022-11-13T22:44:55.332Z,13.57
2022-11-13T22:47:43.697Z,12.87
2022-11-13T22:50:32.097Z,14.40
2022-11-13T22:53:19.088Z,13.43
2022-11-13T22:56:09.310Z,13.43
2022-11-13T22:58:59.082Z,12.87
2022-11-13T23:01:46.432Z,12.43
2022-11-13T23:04:33.236Z,11.00
2022-11-13T23:07:21.531Z,10.43
2022-11-13T23:10:11.971Z,10.07
2022-11-13T23:12:58.966Z,8.73
2022-11-13T23:15:46.067Z,9.00
2022-11-13T23:18:33.682Z,9.03
2022-11-13T23:21:21.337Z,9.00
2022-11-13T23:24:12.036Z,8.97
2022-11-13T23:26:58.955Z,9.00
2022-11-13T23:29:49.895Z,7.93
2022-11-13T23:32:37.111Z,6.90
2022-11-13T23:35:24.072Z,8.47
2022-11-13T23:38:10.923Z,9.03
2022-11-13T23:41:01.335Z,8.13
2022-11-13T23:44:07.820Z,7.63
2022-11-13T23:46:55.128Z,8.40
2022-11-13T23:49:42.133Z,7.80
2022-11-13T23:52:29.212Z,8.00
2022-11-13T23:55:17.333Z,8.17
2022-11-13T23:58:07.864Z,7.57
